Time;durP1;ratioP1;P1;durP2;ratioP2;P2;SDS_P1;SDS_P2;PMS_P1;PMS_P2;Temp;Humidity;BMP_temperature;BMP_pressure;BME280_temperature;BME280_humidity;BME280_pressure;Samples;Min_cycle;Max_cycle;Signal;HPM_P1;HPM_P2
2023/01/15 00:01:22;;;;;;;5.22;0.88;;;6.10;99.90;;;;;;4928018;29;20054;-69
2023/01/15 00:03:50;;;;;;;6.82;1.10;;;6.20;99.90;;;;;;4924383;29;20040;-68
2023/01/15 00:06:17;;;;;;;6.90;1.17;;;6.10;99.90;;;;;;4910037;29;20051;-67
2023/01/15 00:08:43;;;;;;;4.97;0.80;;;6.10;99.90;;;;;;4926314;29;20506;-68
2023/01/15 00:11:10;;;;;;;1.20;0.52;;;6.10;99.90;;;;;;4923807;29;20103;-69
2023/01/15 00:13:37;;;;;;;4.65;0.65;;;6.10;99.90;;;;;;4926433;29;20086;-68
2023/01/15 00:16:18;;;;;;;1.60;0.60;;;6.10;99.90;;;;;;4926761;29;20048;-68
2023/01/15 00:18:55;;;;;;;5.55;0.80;;;6.10;99.90;;;;;;4910925;29;20051;-68
2023/01/15 00:21:22;;;;;;;3.35;0.63;;;6.10;99.90;;;;;;4926734;29;20507;-68
2023/01/15 00:29:20;;;;;;;2.33;0.55;;;6.10;99.90;;;;;;4929892;29;20055;-67
2023/01/15 00:32:04;;;;;;;5.30;0.82;;;6.00;99.90;;;;;;4929503;29;20044;-68
2023/01/15 00:34:31;;;;;;;9.15;0.75;;;6.00;99.90;;;;;;4915735;29;20054;-68
2023/01/15 00:36:58;;;;;;;4.10;1.30;;;6.00;99.90;;;;;;4930790;29;20139;-70
2023/01/15 00:39:25;;;;;;;3.40;1.45;;;6.00;99.90;;;;;;4928802;29;20055;-68
2023/01/15 00:41:55;;;;;;;3.33;0.70;;;6.00;99.90;;;;;;4923517;29;20047;-68
2023/01/15 00:44:21;;;;;;;3.30;1.20;;;6.00;99.90;;;;;;4934931;29;20106;-68
2023/01/15 00:46:48;;;;;;;4.72;0.85;;;5.90;99.90;;;;;;4934896;29;20086;-67
2023/01/15 00:49:16;;;;;;;6.55;1.17;;;5.90;99.90;;;;;;4929562;29;20702;-68
2023/01/15 00:51:42;;;;;;;6.53;0.82;;;5.90;99.90;;;;;;4927716;29;20146;-68
2023/01/15 00:54:09;;;;;;;2.22;0.82;;;5.90;99.90;;;;;;4928830;29;20507;-68
2023/01/15 00:56:36;;;;;;;5.97;0.95;;;5.90;99.90;;;;;;4925841;29;20483;-68
2023/01/15 00:59:03;;;;;;;4.97;0.90;;;5.90;99.90;;;;;;4928418;29;20075;-68
2023/01/15 01:01:30;;;;;;;4.88;1.33;;;5.90;99.90;;;;;;4928384;29;20083;-68
2023/01/15 01:03:57;;;;;;;4.80;1.15;;;5.80;99.90;;;;;;4929329;29;20098;-68
2023/01/15 01:06:24;;;;;;;6.07;0.75;;;5.80;99.90;;;;;;4929991;29;20054;-68
2023/01/15 01:08:51;;;;;;;3.38;1.13;;;5.80;99.90;;;;;;4912873;29;20138;-67
2023/01/15 01:11:19;;;;;;;7.85;1.27;;;5.80;99.90;;;;;;4928745;29;20403;-67
2023/01/15 01:13:47;;;;;;;5.85;0.88;;;5.70;99.90;;;;;;4928332;29;20062;-68
2023/01/15 01:16:36;;;;;;;5.65;1.75;;;5.60;99.90;;;;;;4929046;29;20051;-68
2023/01/15 01:19:14;;;;;;;7.40;0.90;;;5.60;99.90;;;;;;4929213;29;20504;-68
2023/01/15 01:21:41;;;;;;;4.47;1.10;;;5.60;99.90;;;;;;4928795;29;20059;-67
2023/01/15 01:24:12;;;;;;;5.72;1.27;;;5.60;99.90;;;;;;4928921;29;20064;-66
2023/01/15 01:26:39;;;;;;;4.60;2.00;;;5.60;99.90;;;;;;4929968;29;20245;-67
2023/01/15 01:29:06;;;;;;;2.08;0.70;;;5.60;99.90;;;;;;4930481;29;20452;-67
2023/01/15 01:31:33;;;;;;;5.95;0.95;;;5.60;99.90;;;;;;4930031;29;20123;-67
2023/01/15 01:34:00;;;;;;;9.50;1.00;;;5.50;99.90;;;;;;4913565;29;20044;-68
2023/01/15 01:36:29;;;;;;;8.43;1.30;;;5.50;99.90;;;;;;4930342;29;20073;-66
2023/01/15 01:38:56;;;;;;;5.65;1.83;;;5.60;99.90;;;;;;4913490;29;20043;-67
2023/01/15 01:41:22;;;;;;;5.90;1.48;;;5.50;99.90;;;;;;4930356;29;20142;-67
2023/01/15 01:43:56;;;;;;;3.13;0.95;;;5.50;99.90;;;;;;4926954;29;20061;-67
2023/01/15 01:46:24;;;;;;;9.43;0.63;;;5.50;99.90;;;;;;4930443;29;20143;-67
2023/01/15 01:48:54;;;;;;;2.80;0.73;;;5.40;99.90;;;;;;4930041;29;20472;-67
2023/01/15 01:51:22;;;;;;;4.90;1.38;;;5.40;99.90;;;;;;4898182;29;20058;-67
2023/01/15 01:53:49;;;;;;;6.43;1.10;;;5.40;99.90;;;;;;4897334;29;20209;-67
2023/01/15 01:56:17;;;;;;;8.88;1.15;;;5.30;99.90;;;;;;4897975;29;20498;-68
2023/01/15 01:58:46;;;;;;;7.70;1.30;;;5.30;99.90;;;;;;4930195;29;20498;-68
2023/01/15 02:01:12;;;;;;;6.60;1.13;;;5.30;99.90;;;;;;4931518;29;20060;-67
2023/01/15 02:03:39;;;;;;;8.43;1.08;;;5.30;99.90;;;;;;4920401;29;20107;-67
2023/01/15 02:06:07;;;;;;;6.15;0.82;;;5.30;99.90;;;;;;4934024;29;20067;-67
2023/01/15 02:08:38;;;;;;;9.50;1.27;;;5.30;99.90;;;;;;4928980;29;20123;-67
2023/01/15 02:11:05;;;;;;;13.23;2.63;;;5.30;99.90;;;;;;4930262;29;20704;-68
2023/01/15 02:13:49;;;;;;;8.50;1.52;;;5.30;99.90;;;;;;4916349;29;20138;-68
2023/01/15 02:16:43;;;;;;;4.88;1.35;;;5.20;99.90;;;;;;4917348;29;20078;-67
2023/01/15 02:19:13;;;;;;;5.45;1.25;;;5.30;99.90;;;;;;4917645;29;20048;-68
2023/01/15 02:22:17;;;;;;;11.20;1.30;;;5.20;99.90;;;;;;4931635;29;20139;-68
2023/01/15 02:25:04;;;;;;;5.43;1.17;;;5.20;99.90;;;;;;4590044;28;10000018;-67
2023/01/15 02:27:31;;;;;;;12.18;2.15;;;5.20;99.90;;;;;;4918147;29;20043;-68
2023/01/15 02:30:02;;;;;;;5.88;1.50;;;5.10;99.90;;;;;;4900148;29;20052;-67
2023/01/15 02:32:38;;;;;;;8.88;1.33;;;5.20;99.90;;;;;;4900987;29;20070;-67
2023/01/15 02:35:16;;;;;;;5.10;1.33;;;5.10;99.90;;;;;;4901306;29;20826;-68
2023/01/15 02:37:45;;;;;;;16.85;2.30;;;5.10;99.90;;;;;;4917590;29;20056;-68
2023/01/15 02:40:12;;;;;;;3.70;0.90;;;5.00;99.90;;;;;;4915765;29;20138;-67
2023/01/15 02:42:39;;;;;;;2.97;1.23;;;5.10;99.90;;;;;;4916034;29;20139;-68
2023/01/15 02:45:06;;;;;;;9.45;1.15;;;5.10;99.90;;;;;;4900231;29;20138;-68
2023/01/15 02:47:34;;;;;;;3.47;0.88;;;5.00;99.90;;;;;;4900213;29;20044;-68
2023/01/15 02:50:03;;;;;;;3.92;1.08;;;5.00;99.90;;;;;;4893684;29;20058;-68
2023/01/15 02:52:36;;;;;;;12.82;2.35;;;5.00;99.90;;;;;;4916162;29;20047;-68
2023/01/15 02:55:06;;;;;;;6.22;1.23;;;5.00;99.90;;;;;;4915538;29;20685;-68
2023/01/15 02:57:34;;;;;;;9.32;1.05;;;5.00;99.90;;;;;;4916352;29;20060;-66
2023/01/15 03:00:02;;;;;;;10.30;1.77;;;5.00;99.90;;;;;;4915509;29;20138;-67
2023/01/15 03:02:33;;;;;;;6.47;1.33;;;5.00;99.90;;;;;;4900522;29;20062;-67
2023/01/15 03:05:28;;;;;;;11.52;0.80;;;5.00;99.90;;;;;;4915190;29;20504;-67
2023/01/15 03:07:56;;;;;;;7.57;1.10;;;5.00;99.90;;;;;;4906413;29;20491;-67
2023/01/15 03:10:33;;;;;;;3.55;0.80;;;5.00;99.90;;;;;;4915245;29;20087;-67
2023/01/15 03:13:03;;;;;;;4.63;1.40;;;5.00;99.90;;;;;;4897437;29;20118;-67
2023/01/15 03:18:39;;;;;;;3.83;1.10;;;5.00;99.90;;;;;;4912609;29;20044;-67
2023/01/15 03:21:08;;;;;;;6.88;1.50;;;5.00;99.90;;;;;;4912193;29;20064;-67
2023/01/15 03:23:36;;;;;;;9.90;1.17;;;5.00;99.90;;;;;;4909096;29;20087;-67
2023/01/15 03:26:03;;;;;;;6.13;0.90;;;5.00;99.90;;;;;;4904023;29;20135;-67
2023/01/15 03:28:31;;;;;;;5.55;1.00;;;4.90;99.90;;;;;;4913117;29;20052;-68
2023/01/15 03:30:58;;;;;;;11.05;1.08;;;5.00;99.90;;;;;;4911782;29;20055;-70
2023/01/15 03:33:26;;;;;;;7.25;1.08;;;5.00;99.90;;;;;;4908846;29;20052;-67
2023/01/15 03:35:57;;;;;;;3.03;0.73;;;5.00;99.90;;;;;;4900752;29;20083;-67
2023/01/15 03:38:26;;;;;;;7.22;0.90;;;5.00;99.90;;;;;;4913584;29;20104;-67
2023/01/15 03:41:11;;;;;;;5.05;1.13;;;5.00;99.90;;;;;;4915512;29;20082;-67
2023/01/15 03:43:57;;;;;;;3.58;0.80;;;4.90;99.90;;;;;;4917181;29;20048;-67
2023/01/15 03:46:55;;;;;;;6.57;1.00;;;4.90;99.90;;;;;;4914702;29;20051;-67
2023/01/15 03:49:27;;;;;;;4.57;0.90;;;4.90;99.90;;;;;;4913253;29;20538;-67
2023/01/15 03:51:59;;;;;;;4.50;0.85;;;4.90;99.90;;;;;;4912795;29;20048;-68
2023/01/15 03:54:40;;;;;;;8.75;1.10;;;4.90;99.90;;;;;;4913297;29;20052;-66
2023/01/15 03:57:18;;;;;;;7.10;1.40;;;4.90;99.90;;;;;;4913884;29;20047;-66
2023/01/15 03:59:51;;;;;;;8.82;2.00;;;4.90;99.90;;;;;;4897420;29;20044;-66
2023/01/15 04:02:17;;;;;;;5.43;1.15;;;4.90;99.90;;;;;;4896393;29;20555;-67
2023/01/15 04:04:44;;;;;;;5.85;0.88;;;4.90;99.90;;;;;;4912593;29;20071;-67
2023/01/15 04:07:11;;;;;;;9.85;1.08;;;4.90;99.90;;;;;;4909959;29;20556;-67
2023/01/15 04:09:38;;;;;;;10.45;1.77;;;4.90;99.90;;;;;;4912133;29;20140;-68
2023/01/15 04:12:05;;;;;;;10.82;1.48;;;4.80;99.90;;;;;;4915147;29;20127;-67
2023/01/15 04:14:32;;;;;;;10.82;2.03;;;4.80;99.90;;;;;;4933761;29;20514;-67
2023/01/15 04:16:58;;;;;;;2.90;0.85;;;4.70;99.90;;;;;;4933746;29;20086;-67
2023/01/15 04:19:25;;;;;;;9.93;2.95;;;4.70;99.90;;;;;;4934376;29;20642;-67
2023/01/15 04:21:55;;;;;;;7.97;2.38;;;4.70;99.90;;;;;;4934726;29;20062;-67
2023/01/15 04:24:22;;;;;;;7.88;1.20;;;4.60;99.90;;;;;;4934390;29;20142;-68
2023/01/15 04:26:48;;;;;;;6.30;1.50;;;4.90;99.90;;;;;;4933697;29;20044;-67
2023/01/15 04:29:15;;;;;;;11.23;1.00;;;4.80;99.90;;;;;;4931229;29;20086;-67
2023/01/15 04:31:42;;;;;;;7.78;1.20;;;4.80;99.90;;;;;;4931442;29;20047;-66
2023/01/15 04:34:08;;;;;;;11.18;1.13;;;4.80;99.90;;;;;;4931140;29;20117;-68
2023/01/15 04:36:35;;;;;;;5.95;1.23;;;4.80;99.90;;;;;;4931640;29;20075;-67
2023/01/15 04:39:03;;;;;;;4.90;1.38;;;4.90;99.90;;;;;;4931406;29;20048;-69
2023/01/15 04:44:15;;;;;;;3.00;1.05;;;4.70;99.90;;;;;;4930970;29;20588;-68
2023/01/15 04:46:43;;;;;;;4.30;1.33;;;4.80;99.90;;;;;;4933764;29;20048;-67
2023/01/15 04:49:14;;;;;;;4.75;0.90;;;4.70;99.90;;;;;;4931870;29;20563;-67
2023/01/15 04:51:41;;;;;;;3.40;1.45;;;4.70;99.90;;;;;;4933538;29;20571;-67
2023/01/15 04:54:09;;;;;;;3.30;1.55;;;4.70;99.90;;;;;;4933630;29;20152;-67
2023/01/15 04:56:41;;;;;;;3.70;0.98;;;4.60;99.90;;;;;;4933746;29;20087;-67
2023/01/15 04:59:08;;;;;;;4.63;0.85;;;4.60;99.90;;;;;;4932771;29;20044;-67
2023/01/15 05:01:35;;;;;;;4.38;0.80;;;4.60;99.90;;;;;;4931207;29;20051;-67
2023/01/15 05:04:02;;;;;;;5.95;1.52;;;4.60;99.90;;;;;;4930858;29;20051;-67
2023/01/15 05:06:30;;;;;;;12.63;1.02;;;4.60;99.90;;;;;;4930777;29;20560;-67
2023/01/15 05:08:58;;;;;;;4.20;0.73;;;4.60;99.90;;;;;;4930148;29;20504;-67
2023/01/15 05:11:24;;;;;;;8.23;2.50;;;4.60;99.90;;;;;;4930748;29;20058;-67
2023/01/15 05:13:51;;;;;;;4.57;0.90;;;4.60;99.90;;;;;;4930811;29;20138;-67
2023/01/15 05:16:25;;;;;;;2.65;0.75;;;4.60;99.90;;;;;;4930747;29;20054;-66
2023/01/15 05:18:53;;;;;;;8.02;1.00;;;4.60;99.90;;;;;;4931086;29;20079;-67
2023/01/15 05:21:33;;;;;;;4.63;1.08;;;4.60;99.90;;;;;;4930682;29;20135;-67
2023/01/15 05:24:01;;;;;;;6.40;1.00;;;4.60;99.90;;;;;;4930683;29;20056;-67
2023/01/15 05:26:29;;;;;;;4.28;1.02;;;4.60;99.90;;;;;;4913101;29;20417;-67
2023/01/15 05:28:57;;;;;;;4.78;1.00;;;4.60;99.90;;;;;;4913446;29;20051;-67
2023/01/15 05:31:24;;;;;;;4.03;0.90;;;4.60;99.90;;;;;;4925864;29;20055;-67
2023/01/15 05:33:51;;;;;;;2.72;1.00;;;4.60;99.90;;;;;;4921063;29;20452;-67
2023/01/15 05:36:20;;;;;;;1.95;0.60;;;4.60;99.90;;;;;;4929493;29;20048;-67
2023/01/15 05:38:47;;;;;;;6.82;0.93;;;4.70;99.90;;;;;;4916702;29;20086;-67
2023/01/15 05:44:05;;;;;;;7.05;0.98;;;4.70;99.90;;;;;;4934216;29;20070;-67
2023/01/15 05:46:33;;;;;;;4.13;0.80;;;4.80;99.90;;;;;;4933736;29;20533;-67
2023/01/15 05:49:05;;;;;;;1.73;0.50;;;4.80;99.90;;;;;;4934203;29;20047;-67
2023/01/15 05:51:33;;;;;;;7.20;1.10;;;4.90;99.90;;;;;;4933523;29;20052;-67
2023/01/15 05:53:59;;;;;;;18.38;1.60;;;4.90;99.90;;;;;;4934031;29;20048;-66
2023/01/15 05:56:26;;;;;;;3.85;0.95;;;4.90;99.90;;;;;;4933637;29;20147;-66
2023/01/15 05:58:53;;;;;;;2.53;0.93;;;5.00;99.90;;;;;;4933784;29;20134;-67
2023/01/15 06:01:20;;;;;;;4.97;0.47;;;5.00;99.90;;;;;;4933502;29;20499;-68
2023/01/15 06:03:47;;;;;;;6.25;0.93;;;5.10;99.90;;;;;;4933905;29;20055;-66
2023/01/15 06:06:15;;;;;;;5.35;0.80;;;5.10;99.90;;;;;;4916321;29;20055;-66
2023/01/15 06:08:42;;;;;;;4.10;0.85;;;5.10;99.90;;;;;;4933185;29;20051;-66
2023/01/15 06:11:10;;;;;;;2.95;0.80;;;5.10;99.90;;;;;;4933075;29;20069;-66
2023/01/15 06:13:38;;;;;;;0.82;0.60;;;5.10;99.90;;;;;;4933463;29;20079;-67
2023/01/15 06:16:06;;;;;;;3.70;0.60;;;5.20;99.90;;;;;;4933376;29;20051;-67
2023/01/15 06:18:34;;;;;;;1.73;0.50;;;5.20;99.90;;;;;;4933587;29;20075;-66
2023/01/15 06:21:08;;;;;;;5.00;1.08;;;5.30;99.90;;;;;;4933528;29;20428;-66
2023/01/15 06:23:35;;;;;;;2.55;0.73;;;5.20;99.90;;;;;;4933280;29;20062;-66
2023/01/15 06:26:03;;;;;;;8.30;1.15;;;5.20;99.90;;;;;;4933258;29;20048;-69
2023/01/15 06:28:30;;;;;;;2.20;0.70;;;5.20;99.90;;;;;;4933399;29;20134;-66
2023/01/15 06:30:57;;;;;;;2.10;0.50;;;5.20;99.90;;;;;;4933507;29;20085;-67
2023/01/15 06:33:24;;;;;;;12.23;0.88;;;5.20;99.90;;;;;;4916811;29;20179;-67
2023/01/15 06:35:51;;;;;;;2.20;0.80;;;5.20;99.90;;;;;;4918707;29;20079;-66
2023/01/15 06:38:18;;;;;;;6.63;0.63;;;5.10;99.90;;;;;;4931568;29;20048;-66
2023/01/15 06:40:44;;;;;;;3.22;0.60;;;5.20;99.90;;;;;;4932339;29;20058;-67
2023/01/15 06:48:42;;;;;;;3.10;0.77;;;5.10;99.90;;;;;;4931029;29;20424;-67
2023/01/15 06:51:12;;;;;;;2.05;0.73;;;5.00;99.90;;;;;;4915978;29;20060;-67
2023/01/15 06:53:38;;;;;;;5.78;0.70;;;5.00;99.90;;;;;;4933030;29;20048;-67
2023/01/15 06:56:05;;;;;;;2.33;0.77;;;5.00;99.90;;;;;;4932987;29;20055;-67
2023/01/15 06:58:32;;;;;;;6.07;1.08;;;5.00;99.90;;;;;;4932823;29;20452;-67
2023/01/15 07:00:59;;;;;;;6.07;0.88;;;5.00;99.90;;;;;;4932649;29;20051;-68
2023/01/15 07:03:26;;;;;;;3.85;0.68;;;5.00;99.90;;;;;;4932463;29;20056;-67
2023/01/15 07:05:53;;;;;;;2.47;0.70;;;5.00;99.90;;;;;;4932992;29;20058;-67
2023/01/15 07:08:19;;;;;;;8.63;1.85;;;5.00;99.90;;;;;;4915185;29;20139;-67
2023/01/15 07:10:49;;;;;;;8.90;0.90;;;4.90;99.90;;;;;;4932481;29;20056;-70
2023/01/15 07:13:16;;;;;;;8.30;0.85;;;5.00;99.90;;;;;;4932290;29;20087;-67
2023/01/15 07:15:43;;;;;;;5.25;0.85;;;4.90;99.90;;;;;;4932559;29;20048;-68
2023/01/15 07:18:09;;;;;;;2.60;0.57;;;5.00;99.90;;;;;;4932236;29;20411;-67
2023/01/15 07:20:36;;;;;;;6.15;0.52;;;5.00;99.90;;;;;;4932669;29;20054;-67
2023/01/15 07:23:03;;;;;;;7.78;1.45;;;5.00;99.90;;;;;;4932340;29;20044;-68
2023/01/15 07:25:29;;;;;;;3.35;0.65;;;5.00;99.90;;;;;;4932473;29;20086;-68
2023/01/15 07:27:56;;;;;;;5.28;1.92;;;5.00;99.90;;;;;;4932185;29;20058;-68
2023/01/15 07:30:23;;;;;;;3.88;0.82;;;5.00;99.90;;;;;;4915266;29;20583;-68
2023/01/15 07:32:50;;;;;;;4.15;0.82;;;5.10;99.90;;;;;;4932294;29;20631;-67
2023/01/15 07:35:16;;;;;;;5.70;0.80;;;5.10;99.90;;;;;;4931927;29;20048;-68
2023/01/15 07:37:43;;;;;;;6.72;1.42;;;5.10;99.90;;;;;;4932502;29;20052;-67
2023/01/15 07:40:10;;;;;;;6.53;0.63;;;5.10;99.90;;;;;;4929640;29;20051;-67
2023/01/15 07:50:54;;;;;;;2.78;0.77;;;5.10;99.90;;;;;;4903137;29;20134;-68
2023/01/15 07:53:21;;;;;;;5.90;1.08;;;5.10;99.90;;;;;;4932024;29;20043;-68
2023/01/15 07:55:48;;;;;;;4.15;0.77;;;5.10;99.90;;;;;;4914575;29;20058;-68
2023/01/15 07:58:15;;;;;;;3.83;1.38;;;5.20;99.90;;;;;;4899840;29;20053;-68
2023/01/15 08:00:41;;;;;;;10.90;1.98;;;5.20;99.90;;;;;;4931475;29;20047;-68
2023/01/15 08:03:08;;;;;;;7.38;1.35;;;5.20;99.90;;;;;;4931650;29;20102;-68
2023/01/15 08:05:35;;;;;;;9.85;2.22;;;5.20;99.90;;;;;;4931394;29;20058;-67
2023/01/15 08:08:02;;;;;;;5.50;0.90;;;5.30;99.90;;;;;;4931345;29;20135;-65
2023/01/15 08:10:29;;;;;;;8.50;1.40;;;5.30;99.90;;;;;;4914076;29;20058;-67
2023/01/15 08:15:42;;;;;;;9.43;0.90;;;5.40;99.90;;;;;;4931411;29;20134;-67
2023/01/15 08:18:09;;;;;;;6.47;0.80;;;5.50;99.90;;;;;;4931351;29;20709;-66
2023/01/15 08:20:36;;;;;;;4.72;0.82;;;5.50;99.90;;;;;;4930988;29;20044;-67
2023/01/15 08:23:03;;;;;;;7.03;0.90;;;5.60;99.90;;;;;;4931814;29;20135;-67
2023/01/15 08:25:30;;;;;;;6.20;1.10;;;5.60;99.90;;;;;;4931155;29;20048;-67
2023/01/15 08:28:00;;;;;;;8.48;1.67;;;5.60;99.90;;;;;;4931151;29;20134;-67
2023/01/15 08:30:27;;;;;;;10.23;1.23;;;5.50;99.90;;;;;;4930778;29;20107;-67
2023/01/15 08:32:58;;;;;;;3.72;1.40;;;5.60;99.90;;;;;;4920750;29;20055;-67
2023/01/15 08:35:25;;;;;;;4.60;1.00;;;5.50;99.90;;;;;;4930840;29;20135;-67
2023/01/15 08:37:52;;;;;;;4.07;1.25;;;5.50;99.90;;;;;;4913432;29;20063;-67
2023/01/15 08:40:19;;;;;;;10.73;2.35;;;5.50;99.90;;;;;;4931060;29;20123;-67
2023/01/15 08:42:45;;;;;;;4.00;1.05;;;5.50;99.90;;;;;;4931074;29;20388;-65
2023/01/15 08:45:13;;;;;;;13.88;1.17;;;5.50;99.90;;;;;;4930846;29;20106;-67
2023/01/15 08:47:39;;;;;;;9.82;0.95;;;5.50;99.90;;;;;;4931119;29;20115;-67
2023/01/15 08:50:08;;;;;;;9.85;1.10;;;5.50;99.90;;;;;;4931239;29;20086;-67
2023/01/15 08:52:36;;;;;;;6.68;1.05;;;5.60;99.90;;;;;;4931836;29;20062;-66
2023/01/15 08:55:04;;;;;;;8.93;1.05;;;5.60;99.90;;;;;;4932772;29;20131;-67
2023/01/15 08:57:30;;;;;;;3.38;0.98;;;5.60;99.90;;;;;;4931640;29;20456;-67
2023/01/15 08:59:57;;;;;;;4.07;1.20;;;5.70;99.90;;;;;;4932288;29;20122;-67
2023/01/15 09:02:24;;;;;;;5.97;1.20;;;5.70;99.90;;;;;;4931974;29;20052;-67
2023/01/15 09:04:51;;;;;;;8.77;2.63;;;5.80;99.90;;;;;;4932145;29;20048;-67
2023/01/15 09:07:18;;;;;;;6.85;1.15;;;5.90;99.90;;;;;;4929134;29;20511;-67
2023/01/15 09:09:45;;;;;;;11.23;1.52;;;5.80;99.90;;;;;;4930150;29;20059;-67
2023/01/15 09:12:12;;;;;;;9.15;1.25;;;5.90;99.90;;;;;;4930521;29;20130;-67
2023/01/15 09:14:39;;;;;;;9.63;3.15;;;5.90;99.90;;;;;;4934429;29;21002;-67
2023/01/15 09:17:26;;;;;;;3.90;1.00;;;6.00;99.90;;;;;;4934069;29;20048;-68
2023/01/15 09:19:53;;;;;;;4.63;1.10;;;6.00;99.90;;;;;;4931783;29;20047;-67
2023/01/15 09:22:20;;;;;;;10.82;1.75;;;6.00;99.90;;;;;;4937933;29;20352;-69
2023/01/15 09:24:47;;;;;;;4.78;0.85;;;6.10;99.90;;;;;;4938890;29;20066;-69
2023/01/15 09:27:13;;;;;;;6.25;1.38;;;6.20;99.90;;;;;;4595534;29;10000499;-69
2023/01/15 09:29:40;;;;;;;10.63;1.48;;;6.20;99.90;;;;;;4931777;29;20182;-70
2023/01/15 09:32:09;;;;;;;10.13;1.48;;;6.30;99.90;;;;;;4931017;29;20059;-70
2023/01/15 09:34:35;;;;;;;7.68;2.38;;;6.40;99.90;;;;;;4930572;29;20083;-69
2023/01/15 09:37:02;;;;;;;9.98;2.30;;;6.40;99.90;;;;;;4931001;29;20075;-69
2023/01/15 09:39:29;;;;;;;4.68;1.17;;;6.50;99.90;;;;;;4930859;29;20601;-69
2023/01/15 09:42:05;;;;;;;11.93;3.03;;;6.50;99.90;;;;;;4931364;29;20167;-69
2023/01/15 09:44:51;;;;;;;9.35;1.13;;;6.50;99.90;;;;;;4931412;29;20047;-69
2023/01/15 09:47:44;;;;;;;12.13;1.90;;;6.50;99.90;;;;;;4914675;29;20487;-69
2023/01/15 09:50:13;;;;;;;10.32;1.73;;;6.50;99.90;;;;;;4913258;29;20062;-69
2023/01/15 09:52:48;;;;;;;9.38;3.08;;;6.60;99.90;;;;;;4931441;29;20151;-68
2023/01/15 09:55:27;;;;;;;12.75;1.42;;;6.60;99.90;;;;;;4912015;29;20044;-69
2023/01/15 09:57:55;;;;;;;5.30;1.23;;;6.70;99.90;;;;;;4898603;29;20404;-69
2023/01/15 10:00:24;;;;;;;12.75;1.88;;;6.60;99.90;;;;;;4931008;29;20087;-69
2023/01/15 10:02:54;;;;;;;8.20;1.27;;;6.70;99.90;;;;;;4930850;29;20062;-69
2023/01/15 10:06:00;;;;;;;7.78;1.33;;;6.60;99.90;;;;;;4930293;29;20079;-68
2023/01/15 10:08:30;;;;;;;12.55;2.42;;;6.70;99.90;;;;;;4915238;29;21580;-68
2023/01/15 10:12:33;;;;;;;10.70;1.60;;;6.70;99.90;;;;;;4897668;29;20441;-72
2023/01/15 10:14:20;;;;;;;11.13;1.40;;;6.70;99.90;;;;;;4922756;29;20051;-69
2023/01/15 10:16:46;;;;;;;8.27;1.33;;;6.80;99.90;;;;;;4894870;29;20060;-68
2023/01/15 10:19:13;;;;;;;11.20;1.83;;;6.80;99.90;;;;;;4909653;29;20087;-68
2023/01/15 10:22:03;;;;;;;7.05;1.40;;;6.80;99.90;;;;;;4909311;29;20583;-68
2023/01/15 10:24:37;;;;;;;6.90;1.80;;;6.80;99.90;;;;;;4908767;29;20060;-68
2023/01/15 10:27:12;;;;;;;12.02;1.40;;;6.80;99.90;;;;;;4909952;29;20060;-68
2023/01/15 10:29:45;;;;;;;7.10;1.48;;;6.80;99.90;;;;;;4906037;29;20055;-67
2023/01/15 10:32:21;;;;;;;12.93;1.50;;;6.80;99.90;;;;;;4914031;29;20519;-69
2023/01/15 10:35:12;;;;;;;12.18;1.50;;;6.90;99.90;;;;;;4905062;29;20044;-68
2023/01/15 10:38:05;;;;;;;15.63;2.60;;;6.90;99.90;;;;;;4909085;29;20071;-68
2023/01/15 10:40:45;;;;;;;8.35;1.52;;;7.00;99.90;;;;;;4909973;29;20147;-69
2023/01/15 10:43:38;;;;;;;13.50;3.17;;;7.00;99.90;;;;;;4910505;29;20044;-73
2023/01/15 10:46:31;;;;;;;9.35;1.20;;;7.00;99.90;;;;;;4909963;29;20504;-70
2023/01/15 10:49:15;;;;;;;13.35;2.15;;;7.00;99.90;;;;;;4907211;29;20091;-71
2023/01/15 10:51:43;;;;;;;;;;;7.10;99.90;;;;;;4909287;29;20052;-69
2023/01/15 10:54:15;;;;;;;7.72;1.08;;;7.00;99.90;;;;;;4909332;29;19927;-68
2023/01/15 10:56:46;;;;;;;9.52;1.73;;;7.10;99.90;;;;;;4907511;29;20530;-68
2023/01/15 10:59:26;;;;;;;12.13;1.95;;;7.10;99.90;;;;;;4908541;29;20056;-69
2023/01/15 11:01:53;;;;;;;14.48;1.83;;;7.10;99.90;;;;;;4891206;29;20044;-72
2023/01/15 11:04:20;;;;;;;13.02;2.17;;;7.20;99.90;;;;;;4892351;29;20155;-68
2023/01/15 11:06:47;;;;;;;18.85;2.25;;;7.20;99.90;;;;;;4907976;29;20044;-69
2023/01/15 11:09:30;;;;;;;15.20;2.60;;;7.20;99.90;;;;;;4905909;29;20073;-71
2023/01/15 11:20:34;;;;;;;13.35;3.25;;;7.20;99.90;;;;;;4908553;29;20510;-68
2023/01/15 11:23:09;;;;;;;15.95;1.77;;;7.30;99.90;;;;;;4900749;29;20056;-79
2023/01/15 11:25:38;;;;;;;15.07;2.72;;;7.40;99.90;;;;;;4908631;29;20052;-68
2023/01/15 11:28:05;;;;;;;13.27;2.38;;;7.50;99.90;;;;;;4901617;29;20048;-67
2023/01/15 11:30:36;;;;;;;13.30;1.42;;;7.50;99.90;;;;;;4907921;29;20053;-67
2023/01/15 11:33:05;;;;;;;7.82;1.30;;;7.50;99.90;;;;;;4909380;29;20138;-67
2023/01/15 11:35:32;;;;;;;15.63;3.55;;;7.60;99.90;;;;;;4908466;29;20056;-68
2023/01/15 11:38:07;;;;;;;13.45;2.15;;;7.60;99.90;;;;;;4907287;29;20544;-68
2023/01/15 11:40:33;;;;;;;;;;;7.70;99.90;;;;;;4891455;29;20088;-67
2023/01/15 11:51:30;;;;;;;10.23;2.00;;;7.70;99.90;;;;;;4909131;29;20154;-67
2023/01/15 11:54:02;;;;;;;4.97;1.30;;;7.70;99.90;;;;;;4906593;29;20060;-67
2023/01/15 11:56:30;;;;;;;5.82;1.67;;;7.70;99.90;;;;;;4907803;29;20363;-68
2023/01/15 11:58:59;;;;;;;15.95;1.65;;;7.70;99.90;;;;;;4909032;29;20063;-68
2023/01/15 12:01:34;;;;;;;6.75;1.25;;;7.80;99.90;;;;;;4892335;29;20070;-69
2023/01/15 12:04:06;;;;;;;10.43;1.58;;;7.80;99.90;;;;;;4904180;29;20479;-68
2023/01/15 12:06:34;;;;;;;7.70;1.38;;;7.90;99.90;;;;;;4889389;29;20083;-68
2023/01/15 12:09:18;;;;;;;9.82;1.45;;;7.90;99.90;;;;;;4877596;29;20048;-68
2023/01/15 12:11:50;;;;;;;13.85;1.95;;;7.90;99.90;;;;;;4905645;29;20052;-67
2023/01/15 12:14:40;;;;;;;6.15;1.77;;;7.90;99.90;;;;;;4906751;29;20532;-69
2023/01/15 12:17:40;;;;;;;12.15;2.88;;;7.90;99.90;;;;;;4907864;29;20052;-68
2023/01/15 12:20:27;;;;;;;7.18;1.55;;;7.90;99.90;;;;;;4906329;29;20247;-68
2023/01/15 12:23:25;;;;;;;13.05;1.88;;;7.90;99.90;;;;;;4931893;29;20067;-68
2023/01/15 12:26:16;;;;;;;13.15;2.40;;;7.80;99.90;;;;;;4908237;29;20120;-68
2023/01/15 12:28:56;;;;;;;11.15;2.00;;;7.90;99.90;;;;;;4907798;29;20088;-68
2023/01/15 12:31:32;;;;;;;9.68;2.10;;;7.90;99.90;;;;;;4907315;29;20056;-68
2023/01/15 12:34:16;;;;;;;9.32;1.98;;;7.90;99.90;;;;;;4902945;29;20713;-68
2023/01/15 12:36:50;;;;;;;6.18;2.10;;;7.80;99.90;;;;;;4903999;29;20067;-68
2023/01/15 12:39:29;;;;;;;8.10;1.95;;;7.90;99.90;;;;;;4906949;29;20084;-68
2023/01/15 12:45:04;;;;;;;12.05;1.92;;;8.00;99.90;;;;;;4907871;29;20040;-66
2023/01/15 12:47:53;;;;;;;13.07;2.13;;;8.00;99.90;;;;;;4907453;29;20060;-69
2023/01/15 12:50:43;;;;;;;8.15;1.30;;;8.20;99.90;;;;;;4922306;29;20075;-69
2023/01/15 12:53:24;;;;;;;5.38;1.50;;;8.20;99.90;;;;;;4890488;29;20468;-68
2023/01/15 12:56:06;;;;;;;11.48;1.45;;;8.20;99.90;;;;;;4906407;29;20058;-68
2023/01/15 12:58:39;;;;;;;10.30;2.00;;;8.20;99.90;;;;;;4894181;29;20108;-68
2023/01/15 13:01:29;;;;;;;7.03;1.52;;;8.20;99.90;;;;;;4908197;29;20460;-69
2023/01/15 13:04:16;;;;;;;10.77;2.08;;;8.10;99.90;;;;;;4888506;29;20108;-68
2023/01/15 13:06:49;;;;;;;12.75;1.63;;;8.10;99.90;;;;;;4909106;29;20055;-68
2023/01/15 13:09:16;;;;;;;11.65;1.92;;;8.20;99.90;;;;;;4894977;29;20086;-69
2023/01/15 13:11:42;;;;;;;4.28;1.38;;;8.10;99.90;;;;;;4911273;29;20858;-68
2023/01/15 13:14:16;;;;;;;9.48;2.10;;;8.10;99.90;;;;;;4927026;29;20087;-69
2023/01/15 13:17:04;;;;;;;11.82;1.83;;;8.10;99.90;;;;;;4930682;29;20055;-68
2023/01/15 13:19:40;;;;;;;13.98;2.50;;;8.10;99.90;;;;;;4898029;29;20083;-69
2023/01/15 13:22:19;;;;;;;12.27;1.65;;;8.10;99.90;;;;;;4911202;29;20063;-67
2023/01/15 13:25:13;;;;;;;15.77;2.17;;;8.10;99.90;;;;;;4896048;29;20092;-69
2023/01/15 13:28:01;;;;;;;9.75;1.80;;;8.20;99.90;;;;;;4928451;29;20430;-68
2023/01/15 13:30:51;;;;;;;5.20;0.90;;;8.20;99.90;;;;;;4914785;29;20066;-69
2023/01/15 13:33:35;;;;;;;6.05;2.47;;;8.30;99.90;;;;;;4912048;29;20139;-68
2023/01/15 13:36:17;;;;;;;5.65;1.48;;;8.30;99.90;;;;;;4910460;29;20568;-68
2023/01/15 13:38:50;;;;;;;9.50;1.23;;;8.30;99.90;;;;;;4896770;29;20062;-68
2023/01/15 13:42:30;;;;;;;7.47;1.30;;;8.30;99.90;;;;;;4891998;29;20059;-67
2023/01/15 13:44:22;;;;;;;9.73;1.80;;;8.40;99.90;;;;;;4931323;29;20062;-69
2023/01/15 13:47:07;;;;;;;10.45;1.75;;;8.40;99.90;;;;;;4912769;29;20039;-67
2023/01/15 13:49:38;;;;;;;12.38;1.73;;;8.40;99.90;;;;;;4929608;29;20061;-68
2023/01/15 13:52:06;;;;;;;7.07;1.52;;;8.30;99.90;;;;;;4912189;29;20044;-69
2023/01/15 13:54:40;;;;;;;6.03;1.75;;;8.20;99.90;;;;;;4894791;29;20571;-70
2023/01/15 13:57:35;;;;;;;5.57;2.00;;;7.90;99.90;;;;;;4924422;29;20076;-68
2023/01/15 14:00:24;;;;;;;6.47;1.48;;;8.00;99.90;;;;;;4917287;29;20056;-68
2023/01/15 14:02:52;;;;;;;4.82;1.17;;;8.00;99.90;;;;;;4914698;29;20051;-68
2023/01/15 14:05:25;;;;;;;5.78;1.38;;;8.00;99.90;;;;;;4914153;29;20102;-69
2023/01/15 14:07:52;;;;;;;10.95;2.15;;;8.00;99.90;;;;;;4927430;29;20051;-69
2023/01/15 14:10:19;;;;;;;12.43;1.60;;;8.00;99.90;;;;;;4930331;29;20059;-69